ADDS METAR Data INFO
IDs: Format: Raw Decoded Include TAF

Data at: 1248 UTC 19 Oct 2017

KMLE 191235Z AUTO 00000KT 7SM CLR 08/07 A3007 RMK AO2 T00750070
KMLE 191215Z AUTO 00000KT 3SM BR CLR 08/07 A3007 RMK AO2 T00760071
KMLE 191155Z AUTO 00000KT 7SM CLR 08/07 A3007 RMK AO2 T00780072 10113 20077
KMLE 191135Z AUTO 00000KT 4SM BR CLR 08/07 A3007 RMK AO2 T00780073
KMLE 191115Z AUTO 00000KT 7SM CLR 08/08 A3006 RMK AO2 T00800075
KMLE 191055Z AUTO 00000KT 7SM CLR 08/08 A3006 RMK AO2 T00810075
KMLE 191035Z AUTO 00000KT 10SM CLR 08/08 A3005 RMK AO2 T00840077
KMLE 191015Z AUTO 00000KT 10SM CLR 09/08 A3005 RMK AO2 T00860079
KMLE 190955Z AUTO 00000KT 10SM CLR 08/08 A3004 RMK AO2 T00840077
KMLE 190935Z AUTO 00000KT 10SM CLR 09/08 A3004 RMK AO2 T00860080
KMLE 190915Z AUTO 00000KT 10SM CLR 09/08 A3004 RMK AO2 T00870081
KMLE 190855Z AUTO 00000KT 10SM CLR 09/08 A3004 RMK AO2 T00900083
KMLE 190835Z AUTO 00000KT 10SM CLR 09/08 A3004 RMK AO2 T00900083
KMLE 190815Z AUTO 00000KT 10SM CLR 10/09 A3005 RMK AO2 T00950087
KMLE 190755Z AUTO 00000KT 10SM CLR 10/09 A3004 RMK AO2 T00950087
KMLE 190735Z AUTO 00000KT 10SM CLR 10/09 A3004 RMK AO2 T00960089
KMLE 190715Z AUTO 00000KT 10SM CLR 10/09 A3004 RMK AO2 T00980090
KMLE 190655Z AUTO 00000KT 10SM CLR 10/09 A3004 RMK AO2 T01020090
KMLE 190635Z AUTO 00000KT 10SM CLR 11/09 A3003 RMK AO2 T01050088
KMLE 190615Z AUTO 29003KT 10SM CLR 11/09 A3003 RMK AO2 T01120090
KMLE 190555Z AUTO 00000KT 10SM CLR 11/09 A3004 RMK AO2 T01110093 10218 20111 402550081
KMLE 190535Z AUTO 00000KT 10SM CLR 12/09 A3004 RMK AO2 T01160093
KMLE 190515Z AUTO 00000KT 10SM CLR 12/09 A3004 RMK AO2 T01190093
KMLE 190455Z AUTO 00000KT 10SM CLR 12/10 A3004 RMK AO2 T01220095
KMLE 190435Z AUTO 00000KT 10SM CLR 13/09 A3004 RMK AO2 T01280094
KMLE 190415Z AUTO 00000KT 10SM CLR 13/09 A3004 RMK AO2 T01320091
KMLE 190355Z AUTO 00000KT 10SM CLR 14/09 A3003 RMK AO2 T01350091
KMLE 190335Z AUTO 00000KT 10SM CLR 14/09 A3003 RMK AO2 T01400091
KMLE 190315Z AUTO 00000KT 10SM CLR 15/09 A3003 RMK AO2 T01510087
KMLE 190255Z AUTO 00000KT 10SM CLR 17/09 A3003 RMK AO2 T01650086
KMLE 190235Z AUTO 00000KT 10SM CLR 18/09 A3003 RMK AO2 T01760086
KMLE 190215Z AUTO 00000KT 10SM CLR 18/09 A3002 RMK AO2 T01800087
KMLE 190155Z AUTO 00000KT 10SM CLR 19/09 A3002 RMK AO2 T01880086
KMLE 190135Z AUTO 00000KT 10SM CLR 19/09 A3002 RMK AO2 T01940085
KMLE 190115Z AUTO 36003KT 10SM CLR 20/09 A3001 RMK AO2 T01960086
KMLE 190055Z AUTO 01004KT 10SM CLR 20/09 A3001 RMK AO2 T02030087
KMLE 190035Z AUTO 36004KT 10SM CLR 21/09 A3000 RMK AO2 T02100089
KMLE 190015Z AUTO 01004KT 10SM CLR 22/09 A2999 RMK AO2 T02160093
KMLE 182355Z AUTO 36003KT 10SM CLR 20/13 A2998 RMK AO2 T01980132 10255 20196
KMLE 182335Z AUTO 00000KT 10SM CLR 20/13 A2996 RMK AO2 T02010134
KMLE 182315Z AUTO 00000KT 10SM CLR 22/14 A2996 RMK AO2 T02180139
KMLE 182255Z AUTO 00000KT 10SM CLR 24/13 A2995 RMK AO2 T02420131
KMLE 182235Z AUTO 00000KT 10SM CLR 25/12 A2994 RMK AO2 T02480116
KMLE 182215Z AUTO 00000KT 10SM CLR 26/10 A2994 RMK AO2 T02550102
KMLE 182155Z AUTO 00000KT 10SM CLR 25/11 A2993 RMK AO2 T02510112
KMLE 182135Z AUTO 19004KT 10SM CLR 25/11 A2993 RMK AO2 T02530105
KMLE 182110Z AUTO 22004KT 10SM CLR 25/11 A2992 RMK AO2 T02530105
KMLE 182055Z AUTO 28006KT 10SM CLR 25/10 A2992 RMK AO2 T02510104
KMLE 182035Z AUTO 24006KT 10SM CLR 25/11 A2992 RMK AO2 T02540106
KMLE 182015Z AUTO 24006KT 10SM CLR 25/11 A2992 RMK AO2 T02500105
KMLE 181955Z AUTO 21005KT 10SM CLR 25/11 A2991 RMK AO2 T02480106
KMLE 181935Z AUTO 25006KT 10SM CLR 25/10 A2992 RMK AO2 T02460104
KMLE 181915Z AUTO 17003KT 10SM CLR 24/10 A2992 RMK AO2 T02400101
KMLE 181855Z AUTO 20004KT 10SM CLR 24/10 A2993 RMK AO2 T02350100
KMLE 181835Z AUTO 17007KT 150V220 10SM CLR 23/10 A2993 RMK AO2 T02330104
KMLE 181815Z AUTO 18005KT 10SM CLR 23/10 A2992 RMK AO2 T02270104
KMLE 181755Z AUTO 17009KT 10SM CLR 22/10 A2991 RMK AO2 T02220103 10222 20081
KMLE 181735Z AUTO 20007KT 10SM CLR 22/10 A2992 RMK AO2 T02150101
KMLE 181715Z AUTO 18008KT 10SM CLR 21/10 A2992 RMK AO2 T02100101
KMLE 181655Z AUTO 20006KT 10SM CLR 21/10 A2992 RMK AO2 T02060103
KMLE 181635Z AUTO 17009KT 10SM CLR 20/10 A2992 RMK AO2 T01950101
KMLE 181615Z AUTO 17008KT 10SM CLR 19/10 A2993 RMK AO2 T01860097
KMLE 181555Z AUTO 17006KT 10SM CLR 18/10 A2994 RMK AO2 T01770097
KMLE 181535Z AUTO 18006KT 10SM CLR 17/10 A2994 RMK AO2 T01670099
KMLE 181515Z AUTO 18010KT 10SM CLR 16/09 A2994 RMK AO2 T01570093
KMLE 181455Z AUTO 18006G14KT 10SM CLR 15/09 A2993 RMK AO2 T01450091
KMLE 181435Z AUTO 18007KT 10SM CLR 14/09 A2993 RMK AO2 T01370090
KMLE 181415Z AUTO 17007KT 10SM CLR 13/09 A2994 RMK AO2 T01260086
KMLE 181355Z AUTO 15006KT 10SM CLR 12/09 A2994 RMK AO2 T01190085
KMLE 181335Z AUTO 15004KT 10SM CLR 10/08 A2994 RMK AO2 T01020080
KMLE 181315Z AUTO 14004KT 10SM CLR 09/07 A2994 RMK AO2 T00880072
KMLE 181255Z AUTO 14006KT 10SM CLR 09/07 A2994 RMK AO2 T00880072
KMLE 181235Z AUTO 15006KT 10SM CLR 08/07 A2994 RMK AO2 T00830070
KMLE 181215Z AUTO 13005KT 10SM CLR 09/07 A2994 RMK AO2 T00870072
KMLE 181155Z AUTO 14005KT 10SM CLR 09/07 A2994 RMK AO2 T00890071 10118 20089
KMLE 181135Z AUTO 14004KT 10SM CLR 09/08 A2995 RMK AO2 T00940075
KMLE 181115Z AUTO 13004KT 10SM CLR 09/07 A2995 RMK AO2 T00900072
KMLE 181055Z AUTO 12004KT 10SM CLR 10/08 A2994 RMK AO2 T00980078
KMLE 181035Z AUTO 14003KT 10SM CLR 10/08 A2994 RMK AO2 T00980078
KMLE 181015Z AUTO 00000KT 10SM CLR 10/08 A2994 RMK AO2 T01000080
KMLE 180955Z AUTO 00000KT 10SM CLR 10/08 A2994 RMK AO2 T01000080
KMLE 180935Z AUTO 15003KT 10SM CLR 10/08 A2994 RMK AO2 T00950075
KMLE 180915Z AUTO 14004KT 10SM CLR 10/08 A2994 RMK AO2 T01020081
KMLE 180855Z AUTO 15004KT 10SM CLR 10/08 A2994 RMK AO2 T01020080
KMLE 180835Z AUTO 15004KT 10SM CLR 12/08 A2995 RMK AO2 T01180084
KMLE 180815Z AUTO 15004KT 10SM CLR 12/09 A2995 RMK AO2 T01170085
KMLE 180755Z AUTO 14004KT 10SM CLR 12/09 A2996 RMK AO2 T01150085
KMLE 180735Z AUTO 15004KT 10SM CLR 12/09 A2996 RMK AO2 T01150085
KMLE 180715Z AUTO 17003KT 10SM CLR 11/08 A2996 RMK AO2 T01120083
KMLE 180655Z AUTO 00000KT 10SM CLR 11/09 A2996 RMK AO2 T01110085
KMLE 180635Z AUTO 00000KT 10SM CLR 11/08 A2996 RMK AO2 T01050083
KMLE 180615Z AUTO 00000KT 10SM CLR 11/09 A2997 RMK AO2 T01080086
KMLE 180555Z AUTO 00000KT 10SM CLR 11/09 A2997 RMK AO2 T01070085 10173 20107 402280073
KMLE 180535Z AUTO 00000KT 10SM CLR 11/09 A2998 RMK AO2 T01110087
KMLE 180515Z AUTO 00000KT 10SM CLR 11/09 A2998 RMK AO2 T01140087
KMLE 180455Z AUTO 14003KT 10SM CLR 12/09 A2999 RMK AO2 T01160087
KMLE 180435Z AUTO 14003KT 10SM CLR 12/09 A2999 RMK AO2 T01170090
KMLE 180415Z AUTO 00000KT 10SM CLR 11/09 A3000 RMK AO2 T01080092
KMLE 180355Z AUTO 00000KT 10SM CLR 11/09 A3000 RMK AO2 T01080092
KMLE 180335Z AUTO 00000KT 10SM CLR 11/09 A3000 RMK AO2 T01120094
KMLE 180315Z AUTO 00000KT 10SM CLR 12/10 A3000 RMK AO2 T01150095
KMLE 180255Z AUTO 00000KT 10SM CLR 12/10 A3000 RMK AO2 T01170095
KMLE 180235Z AUTO 00000KT 10SM CLR 12/10 A3000 RMK AO2 T01200095
KMLE 180215Z AUTO 00000KT 10SM CLR 13/10 A3000 RMK AO2 T01270095
KMLE 180155Z AUTO 00000KT 10SM CLR 14/10 A3000 RMK AO2 T01360095
KMLE 180135Z AUTO 00000KT 10SM CLR 14/10 A3000 RMK AO2 T01390097
KMLE 180115Z AUTO 00000KT 10SM CLR 14/10 A3000 RMK AO2 T01400100
KMLE 180055Z AUTO 00000KT 10SM CLR 15/10 A3000 RMK AO2 T01480103